createdAt,value
2023-08-06T00:00:39.021Z,100604.59
2023-08-06T00:03:06.991Z,100599.44
2023-08-06T00:05:33.807Z,100604.69
2023-08-06T00:08:00.505Z,100605.50
2023-08-06T00:10:27.059Z,100605.69
2023-08-06T00:12:53.589Z,100602.34
2023-08-06T00:15:20.475Z,100603.09
2023-08-06T00:17:47.218Z,100599.59
2023-08-06T00:20:13.728Z,100599.75
2023-08-06T00:22:40.462Z,100596.34
2023-08-06T00:25:07.293Z,100606.59
2023-08-06T00:27:33.891Z,100591.09
2023-08-06T00:30:03.800Z,100596.34
2023-08-06T00:32:30.437Z,100591.28
2023-08-06T00:34:57.703Z,100593.78
2023-08-06T00:37:24.162Z,100597.09
2023-08-06T00:39:50.769Z,100593.78
2023-08-06T00:42:21.665Z,100598.94
2023-08-06T00:44:48.401Z,100595.34
2023-08-06T00:47:15.227Z,100592.78
2023-08-06T00:49:42.133Z,100597.25
2023-08-06T00:52:09.426Z,100595.44
2023-08-06T00:54:36.367Z,100591.91
2023-08-06T00:57:03.650Z,100591.09
2023-08-06T00:59:32.282Z,100591.28
2023-08-06T01:01:58.893Z,100589.44
2023-08-06T01:04:25.788Z,100592.09
2023-08-06T01:07:31.177Z,100597.16
2023-08-06T01:10:20.304Z,100587.69
2023-08-06T01:12:57.028Z,100589.34
2023-08-06T01:15:29.307Z,100580.78
2023-08-06T01:17:56.013Z,100579.00
2023-08-06T01:20:22.677Z,100586.03
2023-08-06T01:22:49.156Z,100575.69
2023-08-06T01:25:17.978Z,100576.53
2023-08-06T01:27:49.024Z,100579.88
2023-08-06T01:30:31.443Z,100580.78
2023-08-06T01:33:05.124Z,100591.09
2023-08-06T01:35:32.645Z,100586.84
2023-08-06T01:38:01.261Z,100583.44
2023-08-06T01:40:29.498Z,100589.53
2023-08-06T01:42:56.030Z,100591.09
2023-08-06T01:45:22.670Z,100590.19
2023-08-06T01:47:49.394Z,100586.75
2023-08-06T01:50:15.894Z,100590.28
2023-08-06T01:52:42.344Z,100583.44
2023-08-06T01:55:08.978Z,100588.59
2023-08-06T01:57:35.485Z,100592.91
2023-08-06T02:00:01.941Z,100597.25
2023-08-06T02:02:28.454Z,100598.25
2023-08-06T02:04:55.040Z,100591.44
2023-08-06T02:07:21.563Z,100590.59
2023-08-06T02:09:48.197Z,100596.69
2023-08-06T02:12:14.651Z,100600.94
2023-08-06T02:14:41.102Z,100599.34
2023-08-06T02:17:07.566Z,100596.78
2023-08-06T02:19:34.423Z,100601.25
2023-08-06T02:22:01.009Z,100590.13
2023-08-06T02:24:27.429Z,100595.38
2023-08-06T02:26:56.684Z,100590.13
2023-08-06T02:29:23.455Z,100595.28
2023-08-06T02:31:50.159Z,100585.84
2023-08-06T02:34:16.843Z,100591.09
2023-08-06T02:36:43.312Z,100587.63
2023-08-06T02:39:10.010Z,100585.03
2023-08-06T02:41:36.454Z,100586.72
2023-08-06T02:44:02.892Z,100586.75
2023-08-06T02:46:29.343Z,100586.84
2023-08-06T02:48:55.949Z,100583.47
2023-08-06T02:51:22.466Z,100577.44
2023-08-06T02:53:49.600Z,100587.72
2023-08-06T02:56:16.162Z,100576.53
2023-08-06T02:58:42.823Z,100574.88
2023-08-06T03:01:09.603Z,100574.03
2023-08-06T03:03:36.507Z,100573.22
2023-08-06T03:06:03.301Z,100566.38
2023-08-06T03:08:32.907Z,100570.66
2023-08-06T03:10:59.539Z,100564.47
2023-08-06T03:13:26.294Z,100564.47
2023-08-06T03:16:00.077Z,100569.66
2023-08-06T03:18:29.445Z,100566.97
2023-08-06T03:20:56.017Z,100573.03
2023-08-06T03:23:22.741Z,100570.47
2023-08-06T03:25:49.251Z,100565.31
2023-08-06T03:28:15.986Z,100569.78
2023-08-06T03:30:42.523Z,100572.53
2023-08-06T03:33:09.153Z,100571.63
2023-08-06T03:35:35.670Z,100569.06
2023-08-06T03:38:02.430Z,100568.97
2023-08-06T03:40:29.001Z,100571.63
2023-08-06T03:42:55.534Z,100568.78
2023-08-06T03:45:22.111Z,100573.13
2023-08-06T03:47:48.716Z,100570.66
2023-08-06T03:50:15.304Z,100571.56
2023-08-06T03:52:41.829Z,100579.28
2023-08-06T03:55:08.430Z,100578.28
2023-08-06T03:57:34.915Z,100574.03
2023-08-06T04:00:01.402Z,100571.56
2023-08-06T04:02:27.989Z,100579.38
2023-08-06T04:04:54.971Z,100568.06
2023-08-06T04:07:21.610Z,100574.03
2023-08-06T04:09:56.277Z,100575.81
2023-08-06T04:12:23.223Z,100573.38
2023-08-06T04:14:50.886Z,100574.28
2023-08-06T04:17:17.344Z,100580.38
2023-08-06T04:19:44.055Z,100576.03
2023-08-06T04:22:10.599Z,100574.22
2023-08-06T04:24:37.138Z,100578.63
2023-08-06T04:27:03.881Z,100581.19
2023-08-06T04:29:30.626Z,100584.69
2023-08-06T04:31:57.191Z,100576.84
2023-08-06T04:34:23.675Z,100581.97
2023-08-06T04:36:50.207Z,100584.59
2023-08-06T04:39:16.711Z,100588.94
2023-08-06T04:41:43.172Z,100586.34
2023-08-06T04:44:09.628Z,100599.25
2023-08-06T04:46:36.073Z,100593.38
2023-08-06T04:49:02.664Z,100602.44
2023-08-06T04:51:29.203Z,100596.28
2023-08-06T04:53:58.143Z,100598.94
2023-08-06T04:56:24.855Z,100604.09
2023-08-06T04:58:52.911Z,100598.03
2023-08-06T05:01:19.659Z,100597.75
2023-08-06T05:03:46.220Z,100603.75
2023-08-06T05:06:12.780Z,100601.94
2023-08-06T05:08:39.469Z,100602.69
2023-08-06T05:11:06.092Z,100607.00
2023-08-06T05:13:32.506Z,100606.00
2023-08-06T05:15:59.413Z,100614.50
2023-08-06T05:18:26.070Z,100618.00
2023-08-06T05:20:52.555Z,100619.66
2023-08-06T05:23:19.032Z,100619.59
2023-08-06T05:25:45.483Z,100629.16
2023-08-06T05:28:12.258Z,100624.97
2023-08-06T05:30:42.454Z,100633.56
2023-08-06T05:33:09.420Z,100634.47
2023-08-06T05:35:35.901Z,100635.31
2023-08-06T05:38:02.429Z,100633.50
2023-08-06T05:40:28.851Z,100640.31
2023-08-06T05:42:56.337Z,100645.41
2023-08-06T05:45:22.889Z,100644.53
2023-08-06T05:47:49.816Z,100649.72
2023-08-06T05:50:16.509Z,100653.97
2023-08-06T05:52:44.102Z,100656.63
2023-08-06T05:55:10.508Z,100663.56
2023-08-06T05:57:36.974Z,100655.03
2023-08-06T06:00:04.292Z,100655.81
2023-08-06T06:02:30.850Z,100664.38
2023-08-06T06:04:57.403Z,100662.56
2023-08-06T06:07:23.881Z,100670.22
2023-08-06T06:09:50.539Z,100668.38
2023-08-06T06:12:17.006Z,100674.38
2023-08-06T06:14:43.494Z,100665.72
2023-08-06T06:17:10.031Z,100677.78
2023-08-06T06:19:36.652Z,100676.88
2023-08-06T06:22:04.719Z,100685.28
2023-08-06T06:24:31.449Z,100685.19
2023-08-06T06:26:57.889Z,100677.38
2023-08-06T06:29:24.481Z,100689.31
2023-08-06T06:31:50.961Z,100686.47
2023-08-06T06:34:17.416Z,100697.56
2023-08-06T06:36:43.857Z,100697.38
2023-08-06T06:39:10.424Z,100697.97
2023-08-06T06:41:36.903Z,100700.47
2023-08-06T06:44:03.339Z,100702.13
2023-08-06T06:46:29.821Z,100700.41
2023-08-06T06:48:57.373Z,100703.63
2023-08-06T06:51:23.852Z,100706.22
2023-08-06T06:53:50.296Z,100707.88
2023-08-06T06:56:16.791Z,100707.88
2023-08-06T06:58:43.335Z,100709.66
2023-08-06T07:01:12.756Z,100703.53
2023-08-06T07:03:39.596Z,100707.22
2023-08-06T07:06:06.887Z,100708.97
2023-08-06T07:08:33.953Z,100712.38
2023-08-06T07:11:04.924Z,100714.91
2023-08-06T07:13:31.812Z,100713.13
2023-08-06T07:16:09.701Z,100714.06
2023-08-06T07:18:38.101Z,100711.66
2023-08-06T07:21:04.557Z,100711.72
2023-08-06T07:23:31.057Z,100714.38
2023-08-06T07:25:57.581Z,100714.38
2023-08-06T07:28:25.846Z,100712.56
2023-08-06T07:30:52.409Z,100719.97
2023-08-06T07:33:18.951Z,100729.03
2023-08-06T07:35:45.473Z,100730.53
2023-08-06T07:38:12.062Z,100734.72
2023-08-06T07:40:38.674Z,100726.81
2023-08-06T07:43:05.302Z,100731.31
2023-08-06T07:45:36.531Z,100738.78
2023-08-06T07:48:03.250Z,100736.16
2023-08-06T07:50:29.854Z,100740.28
2023-08-06T07:52:56.541Z,100734.28
2023-08-06T07:55:23.072Z,100734.28
2023-08-06T07:57:50.717Z,100733.88
2023-08-06T08:00:17.372Z,100730.94
2023-08-06T08:02:44.062Z,100734.81
2023-08-06T08:05:10.555Z,100735.47
2023-08-06T08:07:37.072Z,100740.94
2023-08-06T08:10:04.368Z,100740.31
2023-08-06T08:12:30.933Z,100732.31
2023-08-06T08:14:57.435Z,100736.06
2023-08-06T08:17:23.902Z,100740.00
2023-08-06T08:19:51.374Z,100737.91
2023-08-06T08:22:17.843Z,100745.06
2023-08-06T08:24:44.410Z,100753.94
2023-08-06T08:27:10.883Z,100752.28
2023-08-06T08:29:37.385Z,100752.53
2023-08-06T08:32:03.888Z,100756.16
2023-08-06T08:34:30.502Z,100757.91
2023-08-06T08:36:56.971Z,100757.97
2023-08-06T08:39:23.585Z,100755.56
2023-08-06T08:41:50.420Z,100759.13
2023-08-06T08:44:18.238Z,100758.34
2023-08-06T08:46:45.531Z,100760.88
2023-08-06T08:49:12.473Z,100760.81
2023-08-06T08:51:39.015Z,100759.13
2023-08-06T08:54:05.680Z,100765.88
2023-08-06T08:56:35.118Z,100766.78
2023-08-06T08:59:02.028Z,100769.28
2023-08-06T09:01:30.006Z,100773.53
2023-08-06T09:03:57.923Z,100775.13
2023-08-06T09:06:28.241Z,100776.81
2023-08-06T09:09:18.001Z,100777.50
2023-08-06T09:11:45.323Z,100785.06
2023-08-06T09:14:12.597Z,100787.56
2023-08-06T09:16:39.825Z,100786.50
2023-08-06T09:19:13.849Z,100794.25
2023-08-06T09:21:41.248Z,100796.28
2023-08-06T09:24:12.685Z,100798.13
2023-08-06T09:26:43.274Z,100815.25
2023-08-06T09:29:12.653Z,100807.75
2023-08-06T09:31:45.470Z,100813.13
2023-08-06T09:34:25.096Z,100815.88
2023-08-06T09:36:53.463Z,100820.03
2023-08-06T09:39:22.001Z,100818.19
2023-08-06T09:41:49.375Z,100817.63
2023-08-06T09:44:20.302Z,100829.94
2023-08-06T09:46:51.420Z,100823.28
2023-08-06T09:49:28.112Z,100831.88
2023-08-06T09:51:57.424Z,100840.44
2023-08-06T09:54:27.911Z,100835.28
2023-08-06T09:56:55.924Z,100844.88
2023-08-06T09:59:23.717Z,100841.66
2023-08-06T10:01:50.336Z,100843.91
2023-08-06T10:04:23.730Z,100848.84
2023-08-06T10:06:51.413Z,100848.94
2023-08-06T10:09:19.356Z,100848.94
2023-08-06T10:11:51.945Z,100847.88
2023-08-06T10:14:33.951Z,100862.38
2023-08-06T10:17:00.894Z,100866.63
2023-08-06T10:19:28.450Z,100866.63
2023-08-06T10:22:15.499Z,100863.19
2023-08-06T10:24:47.878Z,100874.13
2023-08-06T10:27:14.475Z,100861.59
2023-08-06T10:29:41.246Z,100866.84
2023-08-06T10:32:07.748Z,100865.47
2023-08-06T10:34:57.519Z,100868.53
2023-08-06T10:37:24.594Z,100872.16
2023-08-06T10:39:54.370Z,100867.31
2023-08-06T10:42:28.457Z,100868.66
2023-08-06T10:45:31.330Z,100864.28
2023-08-06T10:47:58.851Z,100865.28
2023-08-06T10:50:25.893Z,100868.59
2023-08-06T10:52:53.217Z,100869.66
2023-08-06T10:55:30.283Z,100867.84
2023-08-06T10:57:58.809Z,100874.44
2023-08-06T11:00:25.876Z,100877.72
2023-08-06T11:02:54.074Z,100882.88
2023-08-06T11:05:20.609Z,100889.38
2023-08-06T11:07:49.268Z,100881.97
2023-08-06T11:10:15.961Z,100886.16
2023-08-06T11:12:42.513Z,100884.16
2023-08-06T11:15:09.505Z,100880.69
2023-08-06T11:17:38.024Z,100893.72
2023-08-06T11:20:05.915Z,100896.00
2023-08-06T11:22:37.491Z,100892.22
2023-08-06T11:25:04.269Z,100899.06
2023-08-06T11:27:30.796Z,100910.81
2023-08-06T11:29:57.554Z,100904.06
2023-08-06T11:32:24.085Z,100902.22
2023-08-06T11:34:50.677Z,100914.38
2023-08-06T11:37:17.342Z,100912.72
2023-08-06T11:39:49.281Z,100909.06
2023-08-06T11:42:15.917Z,100915.72
2023-08-06T11:44:46.392Z,100918.25
2023-08-06T11:47:19.134Z,100924.97
2023-08-06T11:49:49.582Z,100926.03
2023-08-06T11:52:26.846Z,100923.66
2023-08-06T11:55:08.846Z,100914.28
2023-08-06T11:57:36.765Z,100914.69
2023-08-06T12:00:08.925Z,100922.84
2023-08-06T12:02:42.820Z,100919.59
2023-08-06T12:05:17.269Z,100916.13
2023-08-06T12:08:14.246Z,100920.34
2023-08-06T12:10:40.729Z,100919.28
2023-08-06T12:13:07.371Z,100920.94
2023-08-06T12:15:34.063Z,100927.69
2023-08-06T12:18:00.735Z,100930.28
2023-08-06T12:20:28.011Z,100932.19
2023-08-06T12:22:54.415Z,100937.44
2023-08-06T12:25:20.880Z,100942.50
2023-08-06T12:27:47.465Z,100942.41
2023-08-06T12:30:14.661Z,100944.03
2023-08-06T12:32:41.788Z,100945.75
2023-08-06T12:35:09.094Z,100948.19
2023-08-06T12:37:36.096Z,100955.06
2023-08-06T12:40:18.879Z,100953.28
2023-08-06T12:42:50.083Z,100962.53
2023-08-06T12:45:16.720Z,100964.84
2023-08-06T12:47:43.265Z,100967.28
2023-08-06T12:50:10.048Z,100959.63
2023-08-06T12:52:36.524Z,100967.13
2023-08-06T12:55:03.088Z,100968.81
2023-08-06T12:57:39.832Z,100975.72
2023-08-06T13:00:14.151Z,100978.97
2023-08-06T13:02:40.657Z,100980.66
2023-08-06T13:05:08.070Z,100978.06
2023-08-06T13:07:34.544Z,100982.97
2023-08-06T13:10:01.304Z,100984.56
2023-08-06T13:12:27.782Z,100990.34
2023-08-06T13:14:54.303Z,100994.44
2023-08-06T13:17:20.828Z,100993.56
2023-08-06T13:19:47.490Z,100998.63
2023-08-06T13:22:13.949Z,101001.84
2023-08-06T13:24:40.411Z,101000.63
2023-08-06T13:27:07.771Z,100997.91
2023-08-06T13:29:34.388Z,101004.63
2023-08-06T13:32:00.987Z,101001.97
2023-08-06T13:34:27.570Z,101006.22
2023-08-06T13:36:54.576Z,101009.69
2023-08-06T13:39:21.690Z,101014.94
2023-08-06T13:41:48.123Z,101008.78
2023-08-06T13:44:15.890Z,101005.28
2023-08-06T13:46:42.746Z,101006.97
2023-08-06T13:49:09.334Z,101015.47
2023-08-06T13:51:37.042Z,101012.66
2023-08-06T13:54:03.777Z,101014.97
2023-08-06T13:56:33.059Z,101014.81
2023-08-06T13:59:00.070Z,101022.72
2023-08-06T14:01:38.647Z,101022.47
2023-08-06T14:04:11.116Z,101027.50
2023-08-06T14:06:37.576Z,101018.84
2023-08-06T14:09:04.204Z,101024.69
2023-08-06T14:11:31.101Z,101027.56
2023-08-06T14:13:57.623Z,101027.25
2023-08-06T14:16:24.132Z,101031.38
2023-08-06T14:18:50.690Z,101036.38
2023-08-06T14:21:17.225Z,101038.94
2023-08-06T14:23:43.829Z,101046.53
2023-08-06T14:26:12.463Z,101048.13
2023-08-06T14:28:39.103Z,101043.81
2023-08-06T14:31:05.586Z,101050.59
2023-08-06T14:33:32.305Z,101055.69
2023-08-06T14:35:58.907Z,101050.88
2023-08-06T14:38:25.501Z,101051.03
2023-08-06T14:40:52.113Z,101057.56
2023-08-06T14:43:18.610Z,101058.34
2023-08-06T14:45:46.395Z,101056.53
2023-08-06T14:48:13.018Z,101057.44
2023-08-06T14:50:40.785Z,101054.75
2023-08-06T14:53:07.502Z,101052.78
2023-08-06T14:55:34.133Z,101061.06
2023-08-06T14:58:02.362Z,101066.75
2023-08-06T15:00:29.124Z,101064.34
2023-08-06T15:02:55.706Z,101068.28
2023-08-06T15:05:22.349Z,101071.56
2023-08-06T15:07:49.119Z,101077.47
2023-08-06T15:12:46.078Z,101094.97
2023-08-06T15:15:12.682Z,101099.88
2023-08-06T15:17:39.254Z,101108.09
2023-08-06T15:20:06.518Z,101109.75
2023-08-06T15:22:33.723Z,101113.66
2023-08-06T15:25:04.959Z,101122.22
2023-08-06T15:27:31.587Z,101126.47
2023-08-06T15:29:58.257Z,101143.59
2023-08-06T15:32:25.496Z,101134.66
2023-08-06T15:34:52.586Z,101145.09
2023-08-06T15:37:19.989Z,101148.63
2023-08-06T15:39:47.124Z,101149.81
2023-08-06T15:42:14.244Z,101151.75
2023-08-06T15:44:40.754Z,101149.31
2023-08-06T15:47:07.228Z,101172.69
2023-08-06T15:49:33.807Z,101166.97
2023-08-06T15:52:00.256Z,101174.13
2023-08-06T15:54:26.721Z,101173.56
2023-08-06T15:56:53.438Z,101171.00
2023-08-06T15:59:28.614Z,101185.59
2023-08-06T16:01:55.622Z,101189.84
2023-08-06T16:04:22.253Z,101191.72
2023-08-06T16:06:48.817Z,101187.59
2023-08-06T16:09:16.351Z,101204.13
2023-08-06T16:11:43.053Z,101200.50
2023-08-06T16:14:09.580Z,101202.81
2023-08-06T16:16:36.174Z,101213.63
2023-08-06T16:19:04.179Z,101213.16
2023-08-06T16:21:32.048Z,101239.47
2023-08-06T16:23:58.724Z,101234.84
2023-08-06T16:26:25.371Z,101231.69
2023-08-06T16:28:52.100Z,101228.94
2023-08-06T16:31:22.350Z,101223.81
2023-08-06T16:33:49.492Z,101230.00
2023-08-06T16:36:16.007Z,101239.03
2023-08-06T16:38:42.858Z,101236.75
2023-08-06T16:41:09.400Z,101248.00
2023-08-06T16:43:35.951Z,101249.94
2023-08-06T16:46:02.639Z,101252.00
2023-08-06T16:48:30.949Z,101252.31
2023-08-06T16:51:01.173Z,101256.81
2023-08-06T16:53:28.774Z,101256.00
2023-08-06T16:55:57.772Z,101259.16
2023-08-06T16:58:25.388Z,101263.97
2023-08-06T17:00:52.533Z,101262.41
2023-08-06T17:03:19.417Z,101266.91
2023-08-06T17:05:45.997Z,101276.63
2023-08-06T17:08:12.898Z,101275.81
2023-08-06T17:10:42.306Z,101276.00
2023-08-06T17:13:19.135Z,101283.00
2023-08-06T17:15:47.778Z,101292.44
2023-08-06T17:18:17.794Z,101299.22
2023-08-06T17:20:45.857Z,101294.34
2023-08-06T17:23:12.524Z,101312.72
2023-08-06T17:25:42.571Z,101301.75
2023-08-06T17:28:09.235Z,101311.31
2023-08-06T17:30:35.727Z,101311.25
2023-08-06T17:33:03.386Z,101317.50
2023-08-06T17:35:31.101Z,101316.94
2023-08-06T17:37:58.590Z,101314.47
2023-08-06T17:40:25.268Z,101311.94
2023-08-06T17:42:52.012Z,101310.16
2023-08-06T17:45:18.927Z,101311.78
2023-08-06T17:47:48.242Z,101315.88
2023-08-06T17:50:15.660Z,101321.13
2023-08-06T17:52:42.174Z,101324.47
2023-08-06T17:55:08.958Z,101322.84
2023-08-06T17:57:35.566Z,101320.28
2023-08-06T18:00:02.302Z,101327.13
2023-08-06T18:02:29.079Z,101321.13
2023-08-06T18:04:55.665Z,101319.47
2023-08-06T18:07:22.162Z,101320.41
2023-08-06T18:09:48.890Z,101320.47
2023-08-06T18:12:18.224Z,101328.19
2023-08-06T18:14:45.338Z,101322.97
2023-08-06T18:17:11.905Z,101335.00
2023-08-06T18:19:38.470Z,101318.72
2023-08-06T18:22:05.193Z,101320.47
2023-08-06T18:24:32.024Z,101319.63
2023-08-06T18:26:58.808Z,101316.22
2023-08-06T18:29:25.390Z,101315.47
2023-08-06T18:31:51.921Z,101324.06
2023-08-06T18:34:18.326Z,101330.25
2023-08-06T18:36:44.774Z,101323.72
2023-08-06T18:39:13.076Z,101333.41
2023-08-06T18:41:39.576Z,101322.50
2023-08-06T18:44:06.051Z,101325.94
2023-08-06T18:46:32.542Z,101321.75
2023-08-06T18:48:59.083Z,101326.03
2023-08-06T18:51:25.630Z,101322.69
2023-08-06T18:53:52.062Z,101329.63
2023-08-06T18:56:18.571Z,101333.13
2023-08-06T18:58:45.311Z,101317.81
2023-08-06T19:01:12.201Z,101316.19
2023-08-06T19:03:38.797Z,101322.28
2023-08-06T19:06:07.275Z,101318.97
2023-08-06T19:08:33.947Z,101314.75
2023-08-06T19:11:00.590Z,101318.31
2023-08-06T19:13:27.172Z,101327.75
2023-08-06T19:15:53.932Z,101322.59
2023-08-06T19:18:20.558Z,101323.34
2023-08-06T19:20:47.699Z,101319.25
2023-08-06T19:23:16.930Z,101309.75
2023-08-06T19:25:46.830Z,101322.59
2023-08-06T19:28:17.345Z,101313.25
2023-08-06T19:30:44.643Z,101325.25
2023-08-06T19:33:14.878Z,101315.88
2023-08-06T19:35:52.689Z,101327.00
2023-08-06T19:38:21.283Z,101327.00
2023-08-06T19:40:48.043Z,101327.88
2023-08-06T19:43:14.985Z,101333.06
2023-08-06T19:45:47.273Z,101328.81
2023-08-06T19:48:13.936Z,101328.81
2023-08-06T19:50:41.879Z,101328.81
2023-08-06T19:53:11.117Z,101327.94
2023-08-06T19:55:41.330Z,101334.00
2023-08-06T19:58:08.666Z,101332.28
2023-08-06T20:00:35.480Z,101323.75
2023-08-06T20:03:02.685Z,101324.66
2023-08-06T20:05:29.491Z,101326.31
2023-08-06T20:07:56.214Z,101322.16
2023-08-06T20:10:23.015Z,101315.25
2023-08-06T20:12:49.487Z,101323.03
2023-08-06T20:15:16.059Z,101320.41
2023-08-06T20:17:42.582Z,101315.25
2023-08-06T20:20:10.191Z,101313.50
2023-08-06T20:22:36.666Z,101316.09
2023-08-06T20:25:03.364Z,101308.44
2023-08-06T20:27:29.876Z,101311.84
2023-08-06T20:29:56.462Z,101308.38
2023-08-06T20:32:22.937Z,101322.16
2023-08-06T20:34:49.795Z,101317.84
2023-08-06T20:37:16.430Z,101322.19
2023-08-06T20:39:43.084Z,101315.38
2023-08-06T20:42:09.483Z,101315.38
2023-08-06T20:44:38.072Z,101322.28
2023-08-06T20:47:05.343Z,101320.53
2023-08-06T20:49:31.938Z,101323.97
2023-08-06T20:51:58.457Z,101321.47
2023-08-06T20:54:24.941Z,101331.75
2023-08-06T20:56:51.505Z,101335.97
2023-08-06T20:59:18.022Z,101324.75
2023-08-06T21:01:44.459Z,101329.06
2023-08-06T21:04:11.046Z,101329.00
2023-08-06T21:06:37.764Z,101339.31
2023-08-06T21:09:04.684Z,101327.28
2023-08-06T21:11:31.184Z,101326.38
2023-08-06T21:13:57.819Z,101340.16
2023-08-06T21:16:24.328Z,101341.00
2023-08-06T21:18:50.972Z,101345.25
2023-08-06T21:21:17.457Z,101343.56
2023-08-06T21:23:43.883Z,101354.75
2023-08-06T21:26:11.243Z,101342.72
2023-08-06T21:28:39.235Z,101356.44
2023-08-06T21:31:13.106Z,101356.44
2023-08-06T21:33:41.538Z,101357.25
2023-08-06T21:36:09.813Z,101371.88
2023-08-06T21:38:38.395Z,101359.88
2023-08-06T21:41:13.637Z,101353.06
2023-08-06T21:43:43.440Z,101373.63
2023-08-06T21:46:11.647Z,101371.16
2023-08-06T21:48:40.241Z,101368.59
2023-08-06T21:51:08.864Z,101376.38
2023-08-06T21:53:37.156Z,101377.31
2023-08-06T21:56:10.442Z,101385.03
2023-08-06T21:58:39.138Z,101381.63
2023-08-06T22:01:07.539Z,101380.00
2023-08-06T22:03:35.327Z,101384.28
2023-08-06T22:06:02.315Z,101386.09
2023-08-06T22:08:31.630Z,101387.94
2023-08-06T22:10:58.461Z,101387.97
2023-08-06T22:13:25.249Z,101393.13
2023-08-06T22:15:53.088Z,101394.00
2023-08-06T22:18:19.839Z,101397.47
2023-08-06T22:20:46.861Z,101394.13
2023-08-06T22:23:13.839Z,101398.50
2023-08-06T22:25:40.614Z,101400.19
2023-08-06T22:28:07.719Z,101385.72
2023-08-06T22:30:34.252Z,101396.00
2023-08-06T22:33:00.898Z,101400.38
2023-08-06T22:35:27.443Z,101399.53
2023-08-06T22:37:54.005Z,101403.94
2023-08-06T22:40:20.550Z,101396.31
2023-08-06T22:42:47.074Z,101391.16
2023-08-06T22:45:14.990Z,101393.78
2023-08-06T22:47:42.261Z,101399.81
2023-08-06T22:50:10.361Z,101403.19
2023-08-06T22:52:37.711Z,101399.78
2023-08-06T22:55:19.173Z,101391.22
2023-08-06T22:57:52.085Z,101396.34
2023-08-06T23:00:18.595Z,101389.53
2023-08-06T23:02:54.933Z,101391.28
2023-08-06T23:05:25.715Z,101387.88
2023-08-06T23:07:52.400Z,101408.38
2023-08-06T23:10:19.026Z,101394.66
2023-08-06T23:12:45.658Z,101395.47
2023-08-06T23:15:12.209Z,101394.66
2023-08-06T23:17:39.904Z,101392.03
2023-08-06T23:20:09.221Z,101385.19
2023-08-06T23:22:35.774Z,101394.66
2023-08-06T23:25:02.354Z,101397.25
2023-08-06T23:27:34.770Z,101407.53
2023-08-06T23:30:02.417Z,101411.00
2023-08-06T23:32:30.183Z,101399.81
2023-08-06T23:34:56.697Z,101403.31
2023-08-06T23:37:23.148Z,101413.59
2023-08-06T23:39:54.091Z,101413.66
2023-08-06T23:42:21.032Z,101408.66
2023-08-06T23:44:47.519Z,101399.31
2023-08-06T23:47:14.544Z,101406.16
2023-08-06T23:49:41.170Z,101409.72
2023-08-06T23:52:07.730Z,101419.22
2023-08-06T23:54:34.218Z,101413.22
2023-08-06T23:57:00.693Z,101412.34
2023-08-06T23:59:27.267Z,101416.66
